Time;durP1;ratioP1;P1;durP2;ratioP2;P2;SDS_P1;SDS_P2;PMS_P1;PMS_P2;Temp;Humidity;BMP_temperature;BMP_pressure;BME280_temperature;BME280_humidity;BME280_pressure;Samples;Min_cycle;Max_cycle;Signal;HPM_P1;HPM_P2
2022/12/12 00:01:43;;;;;;;27.10;16.10;;;-7.90;92.20;;;;;;5048459;28;20057;-64
2022/12/12 00:04:09;;;;;;;31.17;17.02;;;-7.90;91.80;;;;;;5050873;28;20029;-64
2022/12/12 00:06:34;;;;;;;29.23;17.33;;;-7.90;91.90;;;;;;5054612;28;20029;-64
2022/12/12 00:09:02;;;;;;;35.17;18.35;;;-7.80;91.50;;;;;;5052526;28;20083;-64
2022/12/12 00:11:27;;;;;;;35.50;20.17;;;-7.80;92.40;;;;;;5048738;28;20017;-64
2022/12/12 00:13:53;;;;;;;41.03;22.10;;;-7.90;91.60;;;;;;5046182;28;20040;-65
2022/12/12 00:16:19;;;;;;;35.45;19.92;;;-7.80;90.20;;;;;;5043581;28;20038;-64
2022/12/12 00:18:45;;;;;;;33.80;19.20;;;-7.70;90.70;;;;;;5046421;28;20421;-64
2022/12/12 00:21:14;;;;;;;39.00;20.63;;;-7.80;91.60;;;;;;5053593;28;20032;-64
2022/12/12 00:23:43;;;;;;;34.63;19.63;;;-7.80;91.40;;;;;;5043187;28;20045;-63
2022/12/12 00:26:27;;;;;;;36.50;20.35;;;-7.70;90.10;;;;;;5051319;28;20473;-63
2022/12/12 00:28:54;;;;;;;41.80;23.60;;;-7.70;91.20;;;;;;5052742;28;20378;-63
2022/12/12 00:31:20;;;;;;;33.45;17.95;;;-7.80;91.10;;;;;;5049557;28;20029;-65
2022/12/12 00:33:48;;;;;;;31.48;16.83;;;-7.90;91.70;;;;;;5041282;28;20120;-65
2022/12/12 00:36:15;;;;;;;38.95;20.38;;;-8.10;92.30;;;;;;5041996;28;20689;-65
2022/12/12 00:38:41;;;;;;;36.85;18.95;;;-8.20;92.80;;;;;;5052229;28;20087;-64
2022/12/12 00:41:07;;;;;;;42.05;22.15;;;-8.10;91.00;;;;;;5044462;28;20068;-64
2022/12/12 00:43:33;;;;;;;41.58;19.65;;;-8.00;90.20;;;;;;5044945;28;20181;-64
2022/12/12 00:45:59;;;;;;;37.50;20.13;;;-8.00;90.10;;;;;;5048874;28;20052;-64
2022/12/12 00:48:25;;;;;;;39.28;21.67;;;-8.00;90.70;;;;;;5053376;28;20108;-65
2022/12/12 00:50:51;;;;;;;41.28;21.83;;;-8.00;90.10;;;;;;5051930;28;20109;-64
2022/12/12 00:53:17;;;;;;;37.05;18.65;;;-8.10;90.40;;;;;;5053842;28;20040;-64
2022/12/12 00:55:42;;;;;;;39.55;20.92;;;-8.00;89.30;;;;;;5047248;28;20478;-64
2022/12/12 00:58:08;;;;;;;37.42;20.58;;;-7.90;89.40;;;;;;5051836;28;20732;-64
2022/12/12 01:00:34;;;;;;;39.28;20.85;;;-7.70;88.00;;;;;;5052315;28;20036;-64
2022/12/12 01:03:00;;;;;;;43.15;21.38;;;-7.50;88.60;;;;;;5053607;28;20052;-64
2022/12/12 01:05:26;;;;;;;38.17;19.23;;;-7.50;89.50;;;;;;5051459;28;20025;-64
2022/12/12 01:07:52;;;;;;;33.80;18.70;;;-7.60;90.50;;;;;;5056692;28;20025;-64
2022/12/12 01:10:19;;;;;;;33.53;19.23;;;-7.70;91.40;;;;;;5042286;28;20025;-65
2022/12/12 01:12:47;;;;;;;33.67;17.60;;;-7.90;91.00;;;;;;5047785;28;20029;-64
2022/12/12 01:15:12;;;;;;;39.78;19.98;;;-7.90;91.10;;;;;;5046255;28;20458;-65
2022/12/12 01:17:38;;;;;;;37.03;17.95;;;-8.00;92.30;;;;;;5052948;28;20115;-63
2022/12/12 01:20:16;;;;;;;41.03;20.55;;;-8.20;94.00;;;;;;5045118;28;20033;-64
2022/12/12 01:22:41;;;;;;;39.45;20.40;;;-8.30;92.70;;;;;;5051657;28;20456;-64
2022/12/12 01:25:08;;;;;;;34.47;17.23;;;-8.30;91.20;;;;;;5055059;28;20029;-64
2022/12/12 01:27:34;;;;;;;35.15;18.42;;;-8.10;90.20;;;;;;5054955;28;20036;-65
2022/12/12 01:30:01;;;;;;;40.38;19.88;;;-8.20;91.40;;;;;;5046601;28;20334;-64
2022/12/12 01:32:30;;;;;;;38.35;18.95;;;-8.30;91.90;;;;;;5049986;28;20028;-64
2022/12/12 01:34:56;;;;;;;38.83;20.20;;;-8.50;93.20;;;;;;5056799;28;20433;-64
2022/12/12 01:37:22;;;;;;;39.42;19.88;;;-8.70;92.00;;;;;;5056747;28;20036;-64
2022/12/12 01:39:48;;;;;;;38.17;18.67;;;-8.60;90.50;;;;;;5051619;28;20033;-64
2022/12/12 01:42:15;;;;;;;38.75;19.67;;;-8.50;90.80;;;;;;5054146;28;20041;-64
2022/12/12 01:44:47;;;;;;;41.78;21.10;;;-8.60;90.80;;;;;;5049005;28;20032;-64
2022/12/12 01:47:18;;;;;;;42.88;21.75;;;-8.50;89.50;;;;;;5048988;28;20095;-64
2022/12/12 01:49:50;;;;;;;41.95;21.65;;;-8.30;89.40;;;;;;5043471;28;20025;-64
2022/12/12 01:52:23;;;;;;;42.90;21.17;;;-8.30;90.00;;;;;;5054227;28;20406;-64
2022/12/12 01:54:55;;;;;;;39.08;20.75;;;-8.30;90.60;;;;;;5040951;28;20037;-64
2022/12/12 01:57:30;;;;;;;44.50;20.38;;;-8.50;91.40;;;;;;5038516;28;21214;-64
2022/12/12 01:59:58;;;;;;;36.95;19.23;;;-8.70;92.40;;;;;;5041388;28;20029;-64
2022/12/12 02:02:24;;;;;;;31.48;17.50;;;-8.90;93.30;;;;;;5045526;28;20326;-65
2022/12/12 02:04:50;;;;;;;31.77;17.05;;;-9.10;94.20;;;;;;5055305;28;20082;-65
2022/12/12 02:07:16;;;;;;;41.42;20.98;;;-9.20;93.00;;;;;;5053045;28;20028;-65
2022/12/12 02:09:42;;;;;;;45.80;21.25;;;-8.90;88.80;;;;;;5053397;28;20118;-65
2022/12/12 02:12:12;;;;;;;43.42;20.33;;;-8.50;87.40;;;;;;5054349;28;20419;-65
2022/12/12 02:14:42;;;;;;;31.88;17.23;;;-8.30;88.10;;;;;;5039523;28;20036;-65
2022/12/12 02:17:19;;;;;;;31.38;17.15;;;-8.40;90.60;;;;;;5052651;28;20029;-65
2022/12/12 02:20:03;;;;;;;35.10;17.13;;;-8.70;93.10;;;;;;5049378;28;20052;-65
2022/12/12 02:22:53;;;;;;;33.28;16.83;;;-8.90;94.20;;;;;;5056127;28;20029;-64
2022/12/12 02:26:03;;;;;;;35.28;18.40;;;-9.10;95.10;;;;;;5037466;28;20056;-65
2022/12/12 02:29:06;;;;;;;38.30;17.60;;;-9.30;95.20;;;;;;5038942;28;20036;-64
2022/12/12 02:31:47;;;;;;;33.03;17.60;;;-9.40;95.40;;;;;;5056203;28;20102;-64
2022/12/12 02:34:32;;;;;;;39.53;19.92;;;-9.40;92.40;;;;;;5054243;28;20130;-65
2022/12/12 02:37:21;;;;;;;42.88;20.92;;;-9.10;91.00;;;;;;5050765;28;20033;-64
2022/12/12 02:40:06;;;;;;;42.85;20.45;;;-8.70;89.20;;;;;;5049561;28;20029;-64
2022/12/12 02:43:08;;;;;;;37.58;18.58;;;-8.40;88.70;;;;;;5047144;28;20115;-64
2022/12/12 02:45:37;;;;;;;42.53;20.80;;;-8.10;87.90;;;;;;5039923;28;20037;-65
2022/12/12 02:48:18;;;;;;;41.50;19.63;;;-8.00;88.40;;;;;;5055264;28;20110;-65
2022/12/12 02:50:47;;;;;;;43.15;21.70;;;-7.90;89.20;;;;;;5045784;28;20025;-64
2022/12/12 02:53:18;;;;;;;40.13;20.85;;;-8.00;90.60;;;;;;5056348;28;20039;-65
2022/12/12 02:55:45;;;;;;;37.58;19.50;;;-8.00;90.90;;;;;;5051655;28;20036;-65
2022/12/12 02:58:14;;;;;;;44.45;21.00;;;-8.10;91.80;;;;;;5040675;28;20067;-64
2022/12/12 03:01:09;;;;;;;40.67;20.05;;;-8.20;92.20;;;;;;5049227;28;20139;-64
2022/12/12 03:09:56;;;;;;;44.28;20.70;;;-8.10;91.30;;;;;;5046121;28;20086;-64
2022/12/12 03:12:52;;;;;;;56.63;27.98;;;-8.20;92.50;;;;;;5056220;28;20081;-64
2022/12/12 03:15:25;;;;;;;37.53;19.70;;;-8.30;94.20;;;;;;5011305;28;20112;-63
2022/12/12 03:18:15;;;;;;;36.38;19.25;;;-8.30;92.30;;;;;;5055927;28;20430;-63
2022/12/12 03:21:02;;;;;;;44.13;19.75;;;-8.00;91.50;;;;;;5045999;28;20018;-63
2022/12/12 03:23:39;;;;;;;41.72;20.65;;;-7.90;91.80;;;;;;5050283;28;20095;-63
2022/12/12 03:26:16;;;;;;;41.67;21.98;;;-7.90;92.70;;;;;;5052469;28;20049;-64
2022/12/12 03:29:05;;;;;;;44.03;20.35;;;-7.90;93.00;;;;;;5039733;28;20108;-65
2022/12/12 03:31:36;;;;;;;34.33;19.33;;;-7.90;93.10;;;;;;5043430;28;20024;-64
2022/12/12 03:34:06;;;;;;;39.60;19.65;;;-7.90;92.80;;;;;;5054029;28;20056;-65
2022/12/12 03:36:43;;;;;;;38.70;19.90;;;-7.90;93.40;;;;;;5043915;28;20029;-65
2022/12/12 03:39:20;;;;;;;35.53;18.98;;;-7.90;93.50;;;;;;5045770;28;20030;-65
2022/12/12 03:41:59;;;;;;;38.35;19.20;;;-7.90;93.00;;;;;;5049985;28;20029;-64
2022/12/12 03:44:30;;;;;;;39.50;19.63;;;-7.80;93.10;;;;;;5046318;28;20426;-65
2022/12/12 03:47:04;;;;;;;38.47;19.13;;;-7.70;92.90;;;;;;5039857;28;20350;-64
2022/12/12 03:49:58;;;;;;;36.17;17.90;;;-7.60;93.10;;;;;;5041116;28;20017;-65
2022/12/12 03:52:28;;;;;;;35.40;17.73;;;-7.60;93.70;;;;;;5036067;28;20033;-64
2022/12/12 03:55:05;;;;;;;38.40;18.58;;;-7.50;93.90;;;;;;5051282;28;20031;-65
2022/12/12 03:58:07;;;;;;;39.92;19.20;;;-7.70;95.90;;;;;;5055270;28;20041;-64
2022/12/12 04:00:36;;;;;;;36.05;18.20;;;-7.80;96.70;;;;;;5023219;28;20037;-64
2022/12/12 04:03:09;;;;;;;37.78;18.98;;;-7.90;96.00;;;;;;5055630;28;20032;-65
2022/12/12 04:12:57;;;;;;;37.38;18.27;;;-8.00;96.70;;;;;;5054060;28;20318;-64
2022/12/12 04:14:27;;;;;;;36.10;18.27;;;-8.60;97.60;;;;;;5049163;28;20029;-64
2022/12/12 04:16:59;;;;;;;33.97;17.38;;;-8.70;96.40;;;;;;5049450;28;20017;-64
2022/12/12 04:25:25;;;;;;;37.63;18.52;;;-8.60;95.80;;;;;;5050628;28;20378;-64
2022/12/12 04:27:54;;;;;;;37.80;18.80;;;-8.70;96.20;;;;;;5049874;28;20054;-64
2022/12/12 04:30:20;;;;;;;33.13;17.35;;;-8.80;96.90;;;;;;5052945;28;20136;-65
2022/12/12 04:32:57;;;;;;;35.03;18.38;;;-9.00;97.80;;;;;;5055319;28;20049;-66
2022/12/12 04:35:39;;;;;;;39.35;18.13;;;-9.20;97.80;;;;;;5047760;28;20060;-64
2022/12/12 04:38:09;;;;;;;39.50;18.38;;;-9.30;96.90;;;;;;5054106;28;20287;-65
2022/12/12 04:40:42;;;;;;;36.28;18.23;;;-9.30;95.20;;;;;;5036660;28;20033;-65
2022/12/12 04:43:19;;;;;;;42.83;19.50;;;-8.90;91.80;;;;;;5043760;28;20799;-64
2022/12/12 04:45:51;;;;;;;42.55;19.92;;;-8.80;92.60;;;;;;5052501;28;20033;-65
2022/12/12 04:48:23;;;;;;;42.33;20.60;;;-8.70;93.20;;;;;;5054171;28;20022;-65
2022/12/12 04:50:51;;;;;;;37.10;19.15;;;-8.50;93.20;;;;;;5044198;28;20025;-66
2022/12/12 04:53:22;;;;;;;38.03;19.73;;;-8.40;93.50;;;;;;5057860;28;20032;-64
2022/12/12 04:55:54;;;;;;;36.30;19.02;;;-8.30;93.50;;;;;;5058394;28;20021;-63
2022/12/12 04:58:20;;;;;;;39.80;19.35;;;-8.40;95.00;;;;;;5051207;28;20022;-65
2022/12/12 05:00:58;;;;;;;39.67;18.70;;;-8.40;96.10;;;;;;5050719;28;20025;-64
2022/12/12 05:03:47;;;;;;;37.42;18.48;;;-8.80;98.00;;;;;;5043205;28;20026;-64
2022/12/12 05:06:18;;;;;;;37.28;17.33;;;-9.10;98.00;;;;;;5053223;28;20036;-65
2022/12/12 05:08:48;;;;;;;37.42;16.92;;;-9.40;98.00;;;;;;5057347;28;20016;-65
2022/12/12 05:11:17;;;;;;;34.47;17.15;;;-9.50;98.00;;;;;;5056371;28;20017;-64
2022/12/12 05:13:44;;;;;;;36.15;17.40;;;-9.60;98.00;;;;;;5048912;28;20032;-64
2022/12/12 05:16:17;;;;;;;37.53;17.90;;;-9.50;96.90;;;;;;5052550;28;20035;-65
2022/12/12 05:18:42;;;;;;;34.60;17.60;;;-9.40;96.10;;;;;;5054704;28;20414;-63
2022/12/12 05:21:08;;;;;;;31.90;16.08;;;-9.40;96.40;;;;;;5052592;28;20041;-65
2022/12/12 05:23:36;;;;;;;31.48;17.10;;;-9.50;97.20;;;;;;5053710;28;20436;-65
2022/12/12 05:26:07;;;;;;;31.25;15.15;;;-9.60;97.20;;;;;;5054492;28;20045;-65
2022/12/12 05:28:32;;;;;;;49.75;23.42;;;-9.60;96.70;;;;;;5043880;28;20028;-64
2022/12/12 05:30:58;;;;;;;35.65;17.27;;;-9.70;96.30;;;;;;5040983;28;20427;-64
2022/12/12 05:33:24;;;;;;;40.00;17.35;;;-9.70;96.80;;;;;;5053133;28;20096;-65
2022/12/12 05:35:49;;;;;;;33.53;16.25;;;-9.80;97.10;;;;;;5053411;28;20316;-64
2022/12/12 05:38:15;;;;;;;33.63;15.98;;;-10.00;97.80;;;;;;5051638;28;20032;-64
2022/12/12 05:40:40;;;;;;;38.33;17.95;;;-10.20;98.00;;;;;;5051843;28;20562;-66
2022/12/12 05:43:06;;;;;;;31.13;16.48;;;-10.30;97.50;;;;;;5058910;28;20401;-64
2022/12/12 05:45:31;;;;;;;31.67;16.38;;;-10.50;98.00;;;;;;5043109;28;20104;-64
2022/12/12 05:47:57;;;;;;;38.72;18.73;;;-10.50;97.40;;;;;;5056342;28;20024;-65
2022/12/12 05:50:25;;;;;;;35.80;17.55;;;-10.50;98.00;;;;;;5054487;28;20100;-64
2022/12/12 05:52:50;;;;;;;36.42;19.38;;;-10.60;98.00;;;;;;5056376;28;20025;-65
2022/12/12 05:55:22;;;;;;;43.70;21.70;;;-10.70;97.90;;;;;;5055788;28;20029;-64
2022/12/12 05:57:48;;;;;;;48.38;23.77;;;-10.70;97.50;;;;;;5052504;28;20037;-64
2022/12/12 06:00:16;;;;;;;42.45;20.50;;;-10.70;97.10;;;;;;5056063;28;20033;-66
2022/12/12 06:02:41;;;;;;;49.90;23.92;;;-10.60;96.30;;;;;;5046774;28;20037;-65
2022/12/12 06:05:07;;;;;;;42.50;21.52;;;-10.60;96.80;;;;;;5049531;28;20037;-64
2022/12/12 06:07:33;;;;;;;49.63;24.15;;;-10.50;96.10;;;;;;5039532;28;20040;-65
2022/12/12 06:09:59;;;;;;;43.65;20.90;;;-10.40;95.80;;;;;;5054597;28;20029;-64
2022/12/12 06:12:24;;;;;;;41.08;21.30;;;-10.20;95.20;;;;;;5056782;28;20025;-63
2022/12/12 06:14:56;;;;;;;35.92;19.80;;;-10.10;95.00;;;;;;5044187;28;20040;-62
2022/12/12 06:17:21;;;;;;;35.03;17.65;;;-9.90;95.40;;;;;;5037543;28;20064;-63
2022/12/12 06:19:47;;;;;;;34.08;18.50;;;-9.80;95.80;;;;;;5037912;28;20118;-65
2022/12/12 06:22:12;;;;;;;41.22;20.50;;;-9.70;96.90;;;;;;5035699;28;20036;-65
2022/12/12 06:24:38;;;;;;;37.17;17.95;;;-9.80;97.80;;;;;;5046886;28;20159;-65
2022/12/12 06:27:04;;;;;;;39.17;20.48;;;-9.90;97.90;;;;;;5056128;28;20095;-65
2022/12/12 06:29:29;;;;;;;38.33;19.77;;;-9.90;97.40;;;;;;5055126;28;20036;-65
2022/12/12 06:31:55;;;;;;;38.28;19.75;;;-9.90;97.60;;;;;;5056185;28;20033;-65
2022/12/12 06:34:20;;;;;;;41.88;22.25;;;-9.90;97.10;;;;;;5050088;28;20037;-65
2022/12/12 06:36:46;;;;;;;38.42;19.80;;;-9.90;96.30;;;;;;5037260;28;20144;-64
2022/12/12 06:39:11;;;;;;;37.45;19.55;;;-9.80;96.40;;;;;;5049721;28;20059;-64
2022/12/12 06:41:38;;;;;;;38.40;19.83;;;-9.80;96.40;;;;;;5050632;28;20029;-65
2022/12/12 06:44:04;;;;;;;33.50;18.45;;;-9.80;96.70;;;;;;5054761;28;20035;-64
2022/12/12 06:46:30;;;;;;;43.30;20.65;;;-9.80;96.40;;;;;;5057015;28;20429;-65
2022/12/12 06:48:56;;;;;;;38.17;19.60;;;-9.70;96.60;;;;;;5055215;28;20049;-65
2022/12/12 06:51:25;;;;;;;39.75;20.15;;;-9.70;96.80;;;;;;5045110;28;20036;-64
2022/12/12 06:53:51;;;;;;;44.03;21.30;;;-9.60;96.40;;;;;;5053316;28;20060;-64
2022/12/12 06:56:20;;;;;;;54.78;26.42;;;-9.50;97.40;;;;;;5053936;28;20041;-64
2022/12/12 06:58:46;;;;;;;45.22;24.05;;;-9.50;98.00;;;;;;5055444;28;20032;-65
2022/12/12 07:01:18;;;;;;;40.85;21.50;;;-9.60;98.00;;;;;;5055561;28;20037;-65
2022/12/12 07:03:44;;;;;;;41.80;21.08;;;-9.70;98.00;;;;;;5055356;28;20422;-64
2022/12/12 07:06:10;;;;;;;42.88;20.95;;;-9.70;98.00;;;;;;5055733;28;20052;-64
2022/12/12 07:08:36;;;;;;;36.60;19.60;;;-9.70;98.00;;;;;;5056617;28;20032;-65
2022/12/12 07:11:05;;;;;;;33.08;18.00;;;-9.70;97.80;;;;;;5056497;28;20032;-64
2022/12/12 07:13:30;;;;;;;34.63;17.30;;;-9.70;98.00;;;;;;5050520;28;20021;-64
2022/12/12 07:15:59;;;;;;;38.28;19.35;;;-9.60;97.40;;;;;;5044365;28;20047;-64
2022/12/12 07:18:24;;;;;;;45.20;21.67;;;-9.40;96.80;;;;;;5046627;28;20039;-65
2022/12/12 07:20:50;;;;;;;44.22;21.23;;;-9.30;96.90;;;;;;5056407;28;20032;-64
2022/12/12 07:23:15;;;;;;;42.15;21.02;;;-9.10;96.60;;;;;;5055331;28;20037;-65
2022/12/12 07:25:43;;;;;;;42.22;22.45;;;-9.00;96.30;;;;;;5053934;28;20045;-63
2022/12/12 07:28:10;;;;;;;39.28;20.63;;;-8.80;96.40;;;;;;5054922;28;20024;-64
2022/12/12 07:30:41;;;;;;;42.90;20.15;;;-8.80;96.60;;;;;;5054108;28;20021;-64
2022/12/12 07:33:07;;;;;;;42.65;21.35;;;-8.70;96.90;;;;;;5056222;28;20082;-63
2022/12/12 07:35:33;;;;;;;39.38;20.17;;;-8.70;97.40;;;;;;5047634;28;20409;-65
2022/12/12 07:38:02;;;;;;;44.13;20.27;;;-8.70;97.60;;;;;;5036053;28;20034;-64
2022/12/12 07:40:28;;;;;;;39.25;18.10;;;-8.70;97.80;;;;;;5036450;28;20027;-65
2022/12/12 07:42:53;;;;;;;32.25;16.23;;;-8.60;98.00;;;;;;5035128;28;20105;-64
2022/12/12 07:45:21;;;;;;;31.02;17.02;;;-8.60;98.00;;;;;;5035322;28;20037;-64
2022/12/12 07:47:47;;;;;;;30.95;17.15;;;-8.50;97.80;;;;;;5035998;28;20082;-64
2022/12/12 07:50:13;;;;;;;34.45;17.30;;;-8.40;97.70;;;;;;5035758;28;20112;-65
2022/12/12 07:52:38;;;;;;;36.95;17.63;;;-8.30;97.50;;;;;;5035922;28;20037;-64
2022/12/12 07:55:05;;;;;;;54.88;25.90;;;-8.20;97.50;;;;;;5035738;28;20044;-64
2022/12/12 07:57:31;;;;;;;47.53;23.15;;;-8.00;97.30;;;;;;5035261;28;20091;-65
2022/12/12 07:59:57;;;;;;;76.07;32.90;;;-7.90;96.90;;;;;;5054557;28;20072;-64
2022/12/12 08:02:23;;;;;;;84.25;41.10;;;-7.80;97.40;;;;;;5055764;28;20029;-65
2022/12/12 08:04:48;;;;;;;78.53;40.42;;;-7.70;98.00;;;;;;5055656;28;20086;-64
2022/12/12 08:07:14;;;;;;;61.22;33.67;;;-7.60;98.00;;;;;;5053735;28;20421;-64
2022/12/12 08:09:40;;;;;;;62.10;31.73;;;-7.50;98.00;;;;;;5036274;28;20028;-64
2022/12/12 08:12:06;;;;;;;58.38;30.65;;;-7.50;98.00;;;;;;5035555;28;20021;-64
2022/12/12 08:14:36;;;;;;;49.88;28.25;;;-7.50;98.00;;;;;;5033344;28;20029;-65
2022/12/12 08:17:01;;;;;;;46.90;24.85;;;-7.50;98.00;;;;;;5039841;28;20411;-64
2022/12/12 08:19:27;;;;;;;58.15;28.33;;;-7.50;98.00;;;;;;5039740;28;20025;-65
2022/12/12 08:21:52;;;;;;;53.95;27.70;;;-7.40;98.00;;;;;;5038893;28;20419;-64
2022/12/12 08:24:21;;;;;;;55.55;27.70;;;-7.20;98.00;;;;;;5039391;28;20041;-64
2022/12/12 08:26:51;;;;;;;51.85;29.75;;;-7.10;98.00;;;;;;5039482;28;20081;-65
2022/12/12 08:29:17;;;;;;;57.20;30.10;;;-6.80;98.00;;;;;;5039064;28;20322;-64
2022/12/12 08:31:43;;;;;;;51.17;28.25;;;-6.60;98.00;;;;;;5039432;28;20115;-65
2022/12/12 08:34:09;;;;;;;52.42;28.35;;;-6.50;98.00;;;;;;5039538;28;20068;-65
2022/12/12 08:36:35;;;;;;;53.25;29.15;;;-6.30;98.00;;;;;;5039435;28;20469;-65
2022/12/12 08:39:05;;;;;;;58.28;31.88;;;-5.90;98.00;;;;;;5041756;28;20032;-64
2022/12/12 08:41:33;;;;;;;66.32;33.78;;;-5.50;98.00;;;;;;5048249;28;20032;-63
2022/12/12 08:43:58;;;;;;;57.53;31.27;;;-5.30;98.00;;;;;;5058088;28;20025;-64
2022/12/12 08:46:26;;;;;;;50.78;28.98;;;-5.10;98.00;;;;;;5059217;28;20461;-64
2022/12/12 08:48:52;;;;;;;57.65;31.00;;;-4.90;98.00;;;;;;5051691;28;20082;-64
2022/12/12 08:51:18;;;;;;;54.25;31.55;;;-4.60;98.00;;;;;;5055809;28;20025;-64
2022/12/12 08:53:48;;;;;;;53.20;32.08;;;-4.60;98.00;;;;;;5057272;28;20033;-65
2022/12/12 08:56:15;;;;;;;61.72;33.90;;;-4.50;98.00;;;;;;5044937;28;20041;-63
2022/12/12 08:58:41;;;;;;;59.97;35.40;;;-4.50;98.00;;;;;;5037784;28;20053;-64
2022/12/12 09:01:11;;;;;;;59.28;34.95;;;-4.30;98.00;;;;;;5053284;28;20359;-64
2022/12/12 09:03:39;;;;;;;90.25;50.95;;;-4.10;98.00;;;;;;5058816;28;20024;-64
2022/12/12 09:06:06;;;;;;;75.40;43.40;;;-4.10;98.00;;;;;;5057114;28;20025;-64
2022/12/12 09:08:33;;;;;;;68.00;36.80;;;-4.00;98.00;;;;;;5054305;28;20025;-63
2022/12/12 09:11:02;;;;;;;62.80;37.70;;;-3.10;98.00;;;;;;5049701;28;20029;-63
2022/12/12 09:13:28;;;;;;;59.65;35.15;;;-1.90;98.00;;;;;;5037793;28;20056;-64
2022/12/12 09:15:54;;;;;;;53.33;32.85;;;-0.70;98.00;;;;;;5038681;28;20366;-67
2022/12/12 09:18:20;;;;;;;58.33;32.90;;;1.20;98.00;;;;;;5038773;28;20081;-65
2022/12/12 09:20:50;;;;;;;95.25;54.45;;;2.40;96.40;;;;;;5062063;23;20106;-65
2022/12/12 09:23:17;;;;;;;64.18;38.90;;;3.10;89.40;;;;;;5056971;28;20321;-65
2022/12/12 09:25:43;;;;;;;48.58;30.05;;;3.20;88.00;;;;;;5040629;28;20029;-65
2022/12/12 09:28:10;;;;;;;42.85;26.48;;;3.60;88.40;;;;;;5057333;28;20032;-66
2022/12/12 09:30:36;;;;;;;29.63;19.02;;;4.20;85.40;;;;;;5058436;28;20367;-66
2022/12/12 09:33:02;;;;;;;36.30;21.35;;;3.90;83.60;;;;;;5058301;28;20021;-66
2022/12/12 09:35:30;;;;;;;30.02;17.55;;;3.60;86.10;;;;;;5058211;28;20071;-65
2022/12/12 09:37:55;;;;;;;31.73;18.83;;;3.30;84.30;;;;;;5057670;28;20428;-64
2022/12/12 09:40:32;;;;;;;28.77;18.50;;;3.20;86.10;;;;;;5056454;28;20078;-64
2022/12/12 09:42:58;;;;;;;39.25;21.30;;;2.70;85.60;;;;;;5051245;28;20108;-64
2022/12/12 09:45:25;;;;;;;27.20;16.00;;;2.80;85.70;;;;;;5056603;28;20033;-65
2022/12/12 09:47:55;;;;;;;23.23;15.38;;;3.10;84.50;;;;;;5058074;28;20075;-65
2022/12/12 09:50:29;;;;;;;27.83;16.15;;;3.50;84.00;;;;;;5058209;28;20372;-65
2022/12/12 09:53:10;;;;;;;23.90;15.27;;;4.10;82.80;;;;;;5056638;28;20024;-65
2022/12/12 09:55:46;;;;;;;23.65;16.20;;;3.60;81.70;;;;;;5042168;28;20025;-66
2022/12/12 09:58:38;;;;;;;30.38;18.15;;;3.50;81.60;;;;;;5056692;28;20028;-65
2022/12/12 10:01:22;;;;;;;39.50;20.25;;;2.90;80.30;;;;;;5057809;28;20024;-66
2022/12/12 10:03:54;;;;;;;;;;;2.90;82.30;;;;;;5058314;28;20029;-65
2022/12/12 10:06:20;;;;;;;19.90;13.70;;;3.00;81.70;;;;;;5057641;28;20314;-65
2022/12/12 10:09:08;;;;;;;21.40;14.32;;;3.40;81.40;;;;;;5057210;28;20302;-64
2022/12/12 10:11:49;;;;;;;23.13;15.00;;;3.40;80.70;;;;;;5057556;28;20103;-65
2022/12/12 10:14:18;;;;;;;23.27;13.80;;;3.40;80.50;;;;;;5055226;28;20049;-64
2022/12/12 10:16:45;;;;;;;24.00;15.60;;;3.70;79.80;;;;;;5057482;28;20321;-64
2022/12/12 10:19:20;;;;;;;26.20;15.82;;;3.90;79.80;;;;;;5057726;28;20032;-66
2022/12/12 10:21:48;;;;;;;24.45;14.68;;;4.30;79.10;;;;;;5057352;28;20484;-65
2022/12/12 10:24:34;;;;;;;22.45;13.77;;;4.10;79.00;;;;;;5057390;28;20071;-64
2022/12/12 10:27:08;;;;;;;24.92;15.55;;;4.00;78.70;;;;;;5057401;28;20066;-64
2022/12/12 10:29:34;;;;;;;;;;;3.80;79.00;;;;;;5055475;28;20033;-64
2022/12/12 10:32:30;;;;;;;21.05;14.50;;;3.50;78.70;;;;;;5057230;28;19904;-65
2022/12/12 10:35:10;;;;;;;25.00;15.68;;;2.90;80.30;;;;;;5057135;28;20033;-64
2022/12/12 10:38:12;;;;;;;25.02;15.93;;;2.90;80.20;;;;;;5055501;28;20406;-65
2022/12/12 10:40:57;;;;;;;26.50;15.23;;;2.70;80.80;;;;;;5037110;28;20036;-65
2022/12/12 10:43:38;;;;;;;24.10;15.27;;;2.50;81.80;;;;;;5036002;28;20036;-65
2022/12/12 10:46:30;;;;;;;29.08;18.23;;;3.00;80.90;;;;;;5037121;28;20025;-65
2022/12/12 10:48:56;;;;;;;24.08;15.40;;;2.90;79.80;;;;;;5019418;28;20026;-65
2022/12/12 10:51:24;;;;;;;25.60;15.23;;;2.80;79.60;;;;;;5037065;28;20039;-65
2022/12/12 10:53:51;;;;;;;29.27;21.35;;;2.90;80.30;;;;;;5050033;28;20100;-65
2022/12/12 10:56:23;;;;;;;26.65;17.08;;;2.90;79.20;;;;;;5056600;28;20029;-65
2022/12/12 10:58:58;;;;;;;26.83;16.55;;;2.90;80.90;;;;;;5055582;28;20032;-65
2022/12/12 11:01:35;;;;;;;23.10;14.13;;;3.40;79.60;;;;;;5056814;28;20573;-65
2022/12/12 11:04:03;;;;;;;24.25;15.40;;;3.80;79.40;;;;;;5056629;28;20017;-65
2022/12/12 11:06:35;;;;;;;20.48;12.65;;;3.50;77.40;;;;;;5056751;28;20342;-65
2022/12/12 11:09:19;;;;;;;23.40;14.15;;;3.10;78.30;;;;;;5055001;28;20032;-65
2022/12/12 11:12:12;;;;;;;23.58;14.27;;;3.00;80.10;;;;;;5056344;28;20021;-65
2022/12/12 11:14:43;;;;;;;23.83;14.00;;;3.30;79.40;;;;;;5055342;28;20040;-65
2022/12/12 11:17:28;;;;;;;19.15;12.65;;;3.50;78.60;;;;;;5056748;28;20028;-65
2022/12/12 11:19:56;;;;;;;24.48;15.10;;;3.50;77.70;;;;;;5056502;28;20059;-65
2022/12/12 11:22:22;;;;;;;21.02;13.30;;;3.10;78.60;;;;;;5055466;28;20073;-65
2022/12/12 11:24:49;;;;;;;22.95;13.10;;;3.00;79.30;;;;;;5055915;28;20037;-65
2022/12/12 11:27:29;;;;;;;28.98;15.38;;;3.40;79.10;;;;;;5056444;28;20021;-65
2022/12/12 11:29:57;;;;;;;22.23;12.80;;;3.50;78.70;;;;;;5055119;28;20017;-65
2022/12/12 11:32:39;;;;;;;21.10;13.35;;;3.40;78.80;;;;;;5056284;28;20124;-65
2022/12/12 11:35:20;;;;;;;22.95;13.23;;;3.60;78.80;;;;;;5056291;28;20110;-65
2022/12/12 11:37:48;;;;;;;20.33;13.38;;;3.20;77.50;;;;;;5056274;28;20033;-65
2022/12/12 11:40:27;;;;;;;23.02;13.88;;;2.90;79.40;;;;;;5054479;28;20029;-65
2022/12/12 11:43:12;;;;;;;22.17;13.68;;;2.60;78.80;;;;;;5054816;28;20036;-65
2022/12/12 11:45:40;;;;;;;22.25;14.50;;;2.10;81.20;;;;;;5056193;28;20079;-65
2022/12/12 11:48:37;;;;;;;23.27;14.10;;;2.10;82.90;;;;;;5055991;28;20125;-65
2022/12/12 11:51:03;;;;;;;22.17;15.02;;;2.30;82.20;;;;;;5046771;28;20299;-65
2022/12/12 11:53:30;;;;;;;23.73;14.20;;;2.50;81.90;;;;;;5054753;28;20031;-65
2022/12/12 11:56:14;;;;;;;24.75;14.40;;;2.70;81.50;;;;;;5056030;28;20029;-65
2022/12/12 11:59:09;;;;;;;25.33;15.32;;;2.70;80.40;;;;;;5054624;28;20731;-65
2022/12/12 12:01:54;;;;;;;26.33;16.13;;;2.40;82.10;;;;;;5019796;28;20072;-64
2022/12/12 12:04:46;;;;;;;;;;;2.50;81.00;;;;;;5056242;28;20025;-64
2022/12/12 12:07:33;;;;;;;23.92;15.57;;;2.30;81.40;;;;;;5054919;28;19948;-64
2022/12/12 12:10:39;;;;;;;24.20;15.32;;;2.10;82.30;;;;;;5055764;28;20024;-64
2022/12/12 12:13:38;;;;;;;33.90;15.93;;;2.20;82.50;;;;;;5054510;28;20100;-66
2022/12/12 12:16:45;;;;;;;27.35;15.48;;;2.30;82.30;;;;;;5054053;28;20055;-65
2022/12/12 12:19:53;;;;;;;24.10;14.50;;;1.70;83.20;;;;;;5038439;28;20033;-65
2022/12/12 12:22:42;;;;;;;30.70;16.33;;;1.80;83.00;;;;;;5037946;28;20356;-65
2022/12/12 12:25:14;;;;;;;26.60;16.38;;;1.60;83.40;;;;;;5055678;28;20409;-65
2022/12/12 12:27:58;;;;;;;27.08;16.33;;;1.40;83.70;;;;;;5054700;28;20032;-65
2022/12/12 12:30:29;;;;;;;23.77;14.53;;;1.20;84.10;;;;;;5054831;28;20040;-64
2022/12/12 12:33:25;;;;;;;27.83;14.85;;;1.10;84.70;;;;;;5055523;28;20017;-65
2022/12/12 12:36:27;;;;;;;28.70;14.80;;;1.20;84.60;;;;;;5055610;28;20029;-64
2022/12/12 12:39:14;;;;;;;25.02;15.25;;;1.10;84.60;;;;;;5055625;28;20028;-65
2022/12/12 12:42:29;;;;;;;24.50;13.95;;;1.20;84.90;;;;;;5056785;28;20384;-65
2022/12/12 12:45:16;;;;;;;22.30;13.38;;;1.30;84.90;;;;;;5029881;28;20063;-65
2022/12/12 12:47:51;;;;;;;21.20;12.82;;;1.40;84.00;;;;;;5054656;28;20045;-64
2022/12/12 12:50:28;;;;;;;24.25;14.43;;;1.40;84.80;;;;;;5054384;28;20428;-65
2022/12/12 12:53:06;;;;;;;21.50;12.70;;;1.40;84.60;;;;;;5055421;28;20037;-65
2022/12/12 12:55:41;;;;;;;23.80;13.05;;;1.30;84.40;;;;;;5054397;28;20021;-65
2022/12/12 12:58:17;;;;;;;21.85;12.40;;;1.20;84.90;;;;;;5054042;28;20022;-64
2022/12/12 13:00:43;;;;;;;20.65;12.93;;;1.20;85.00;;;;;;5068188;28;20033;-64
2022/12/12 13:03:11;;;;;;;24.00;12.23;;;1.30;84.50;;;;;;5078996;28;20091;-65
2022/12/12 13:05:45;;;;;;;18.80;12.13;;;1.10;84.10;;;;;;5076252;28;20034;-64
2022/12/12 13:08:52;;;;;;;20.10;11.73;;;1.10;83.90;;;;;;5079057;28;20028;-65
2022/12/12 13:11:25;;;;;;;18.70;11.23;;;0.90;83.70;;;;;;5058615;28;20427;-64
2022/12/12 13:13:55;;;;;;;21.63;10.50;;;0.80;84.20;;;;;;5056810;28;20024;-64
2022/12/12 13:16:31;;;;;;;19.02;10.65;;;0.90;84.00;;;;;;5076947;28;20033;-65